Time;durP1;ratioP1;P1;durP2;ratioP2;P2;SDS_P1;SDS_P2;PMS_P1;PMS_P2;Temp;Humidity;BMP_temperature;BMP_pressure;BME280_temperature;BME280_humidity;BME280_pressure;Samples;Min_cycle;Max_cycle;Signal;HPM_P1;HPM_P2
2023/08/02 00:01:01;;;;;;;3.28;1.90;;;15.30;99.90;;;;;;5100730;27;20038;-82
2023/08/02 00:03:27;;;;;;;1.92;1.50;;;15.40;99.90;;;;;;5102360;27;20147;-83
2023/08/02 00:05:58;;;;;;;3.85;1.80;;;15.30;99.90;;;;;;5098639;27;20781;-82
2023/08/02 00:08:25;;;;;;;3.85;2.10;;;15.30;99.90;;;;;;5099377;27;20043;-82
2023/08/02 00:10:50;;;;;;;3.15;1.95;;;15.30;99.90;;;;;;5102875;27;20122;-83
2023/08/02 00:13:16;;;;;;;3.58;2.05;;;15.40;99.90;;;;;;5107678;27;20175;-83
2023/08/02 00:15:42;;;;;;;3.70;1.85;;;15.40;99.90;;;;;;5082039;27;20027;-83
2023/08/02 00:18:08;;;;;;;3.60;2.00;;;15.40;99.90;;;;;;5108772;27;20050;-82
2023/08/02 00:20:36;;;;;;;7.00;1.95;;;15.40;99.90;;;;;;5085494;27;20117;-82
2023/08/02 00:23:01;;;;;;;3.80;2.10;;;15.40;99.90;;;;;;5110352;27;20071;-82
2023/08/02 00:25:27;;;;;;;6.45;2.20;;;15.40;99.90;;;;;;5100355;27;20165;-82
2023/08/02 00:27:53;;;;;;;3.58;1.88;;;15.40;99.90;;;;;;5129408;27;20030;-82
2023/08/02 00:30:18;;;;;;;5.88;2.03;;;15.40;99.90;;;;;;5106054;27;20039;-82
2023/08/02 00:32:45;;;;;;;5.80;2.25;;;15.40;99.90;;;;;;5089809;27;20036;-83
2023/08/02 00:35:10;;;;;;;3.38;1.92;;;15.40;99.90;;;;;;5087664;27;20098;-82
2023/08/02 00:37:36;;;;;;;3.88;2.15;;;15.40;99.90;;;;;;5087145;27;20043;-82
2023/08/02 00:40:02;;;;;;;4.50;2.17;;;15.40;99.90;;;;;;5095523;27;20034;-82
2023/08/02 00:42:27;;;;;;;5.38;2.30;;;15.40;99.90;;;;;;5090244;27;20075;-82
2023/08/02 00:44:53;;;;;;;6.72;2.63;;;15.40;99.90;;;;;;5108701;27;20059;-82
2023/08/02 00:47:18;;;;;;;9.00;2.80;;;15.40;99.90;;;;;;5092904;27;20043;-82
2023/08/02 00:49:45;;;;;;;6.93;2.70;;;15.40;99.90;;;;;;5095191;27;20032;-82
2023/08/02 00:52:11;;;;;;;4.43;2.60;;;15.40;99.90;;;;;;5117846;27;20382;-83
2023/08/02 00:54:38;;;;;;;6.13;2.72;;;15.40;99.90;;;;;;5107017;27;20059;-82
2023/08/02 00:57:04;;;;;;;6.28;3.08;;;15.40;99.90;;;;;;5103744;27;20032;-82
2023/08/02 00:59:30;;;;;;;4.68;2.60;;;15.40;99.90;;;;;;5100621;27;20045;-82
2023/08/02 01:01:55;;;;;;;5.35;2.83;;;15.40;99.90;;;;;;5090037;27;20110;-82
2023/08/02 01:04:21;;;;;;;9.68;3.25;;;15.40;99.90;;;;;;5118051;27;20114;-82
2023/08/02 01:06:58;;;;;;;5.03;2.92;;;15.40;99.90;;;;;;5123553;27;20137;-82
2023/08/02 01:09:56;;;;;;;5.78;3.20;;;15.40;99.90;;;;;;5113818;27;20118;-82
2023/08/02 01:12:23;;;;;;;5.63;2.88;;;15.40;99.90;;;;;;5079687;27;20042;-82
2023/08/02 01:14:57;;;;;;;4.80;3.30;;;15.40;99.90;;;;;;5094484;27;20279;-82
2023/08/02 01:17:25;;;;;;;5.03;3.17;;;15.40;99.90;;;;;;5106072;27;20074;-82
2023/08/02 01:19:50;;;;;;;6.47;3.28;;;15.40;99.90;;;;;;5106549;27;20490;-82
2023/08/02 01:22:22;;;;;;;10.80;3.28;;;15.40;99.90;;;;;;5087364;27;20039;-82
2023/08/02 01:24:48;;;;;;;6.47;3.75;;;15.40;99.90;;;;;;5125361;27;20080;-82
2023/08/02 01:27:23;;;;;;;7.40;4.20;;;15.40;99.90;;;;;;5087123;27;20067;-82
2023/08/02 01:29:50;;;;;;;;;;;15.40;99.90;;;;;;5105503;27;20622;-83
2023/08/02 01:32:18;;;;;;;9.63;3.45;;;15.40;99.90;;;;;;5105006;27;19926;-83
2023/08/02 01:34:45;;;;;;;5.05;3.75;;;15.40;99.90;;;;;;5085278;27;20042;-82
2023/08/02 01:37:10;;;;;;;5.38;3.75;;;15.40;99.90;;;;;;5116782;27;20514;-82
2023/08/02 01:39:36;;;;;;;6.78;3.97;;;15.40;99.90;;;;;;5129492;27;20486;-82
2023/08/02 01:42:02;;;;;;;7.00;3.90;;;15.40;99.90;;;;;;5104263;27;20078;-83
2023/08/02 01:44:27;;;;;;;8.20;3.72;;;15.40;99.90;;;;;;5083993;28;20058;-82
2023/08/02 01:46:53;;;;;;;6.32;3.20;;;15.40;99.90;;;;;;5076235;28;20387;-82
2023/08/02 01:49:19;;;;;;;5.70;3.65;;;15.40;99.90;;;;;;5089465;28;20058;-82
2023/08/02 01:51:44;;;;;;;6.38;3.65;;;15.40;99.90;;;;;;5092278;28;20044;-83
2023/08/02 01:54:14;;;;;;;8.27;3.63;;;15.40;99.90;;;;;;5070593;28;20044;-82
2023/08/02 01:56:40;;;;;;;5.90;3.30;;;15.40;99.90;;;;;;5090752;28;20492;-82
2023/08/02 01:59:05;;;;;;;6.35;3.50;;;15.30;99.90;;;;;;5092107;28;20040;-82
2023/08/02 02:01:31;;;;;;;8.15;3.92;;;15.40;99.90;;;;;;5095200;28;20676;-82
2023/08/02 02:03:57;;;;;;;10.63;3.35;;;15.40;99.90;;;;;;5072386;28;20067;-82
2023/08/02 02:06:22;;;;;;;7.20;3.58;;;15.30;99.90;;;;;;5069211;28;20044;-82
2023/08/02 02:08:49;;;;;;;7.57;3.40;;;15.40;99.90;;;;;;5075750;28;20173;-82
2023/08/02 02:11:17;;;;;;;7.65;4.05;;;15.30;99.90;;;;;;5085177;28;20092;-82
2023/08/02 02:13:43;;;;;;;10.07;3.28;;;15.30;99.90;;;;;;5072969;28;20115;-82
2023/08/02 02:16:08;;;;;;;5.20;3.47;;;15.40;99.90;;;;;;5075447;28;20103;-82
2023/08/02 02:18:34;;;;;;;6.57;3.30;;;15.30;99.90;;;;;;5071342;28;20043;-82
2023/08/02 02:21:00;;;;;;;6.63;3.42;;;15.40;99.90;;;;;;5080251;28;20039;-82
2023/08/02 02:23:25;;;;;;;5.45;3.35;;;15.30;99.90;;;;;;5073687;28;20052;-82
2023/08/02 02:25:51;;;;;;;6.38;3.20;;;15.30;99.90;;;;;;5073882;28;20192;-82
2023/08/02 02:28:19;;;;;;;7.75;3.70;;;15.30;99.90;;;;;;5065839;28;20046;-82
2023/08/02 02:30:44;;;;;;;8.45;4.35;;;15.30;99.90;;;;;;5089770;28;20070;-82
2023/08/02 02:33:10;;;;;;;5.05;3.42;;;15.30;99.90;;;;;;5088470;28;20338;-82
2023/08/02 02:35:36;;;;;;;12.00;4.10;;;15.30;99.90;;;;;;5088341;28;20661;-83
2023/08/02 02:38:01;;;;;;;7.03;3.47;;;15.30;99.90;;;;;;5069548;28;20085;-82
2023/08/02 02:40:27;;;;;;;5.93;3.60;;;15.30;99.90;;;;;;5091468;28;20039;-82
2023/08/02 02:42:53;;;;;;;9.07;3.75;;;15.30;99.90;;;;;;5081801;28;20464;-82
2023/08/02 02:45:18;;;;;;;6.82;3.55;;;15.30;99.90;;;;;;5094910;27;20082;-82
2023/08/02 02:47:44;;;;;;;7.95;3.67;;;15.30;99.90;;;;;;5091436;27;20043;-82
2023/08/02 02:50:10;;;;;;;11.15;3.42;;;15.30;99.90;;;;;;5088040;27;20079;-82
2023/08/02 02:52:35;;;;;;;9.95;3.38;;;15.40;99.90;;;;;;5099156;27;20122;-82
2023/08/02 02:55:01;;;;;;;6.47;3.88;;;15.30;99.90;;;;;;5097094;27;20458;-82
2023/08/02 02:57:27;;;;;;;9.55;3.65;;;15.30;99.90;;;;;;5100009;27;20352;-82
2023/08/02 02:59:52;;;;;;;9.23;4.03;;;15.30;99.90;;;;;;5092294;27;20047;-82
2023/08/02 03:02:18;;;;;;;8.82;3.08;;;15.30;99.90;;;;;;5100881;27;20162;-82
2023/08/02 03:04:44;;;;;;;14.40;4.00;;;15.30;99.90;;;;;;5101532;27;20351;-82
2023/08/02 03:07:09;;;;;;;9.90;3.60;;;15.30;99.90;;;;;;5089908;27;20035;-82
2023/08/02 03:09:35;;;;;;;7.85;3.42;;;15.30;99.90;;;;;;5102078;27;20036;-82
2023/08/02 03:12:01;;;;;;;6.10;3.15;;;15.30;99.90;;;;;;5103307;27;20059;-82
2023/08/02 03:14:27;;;;;;;7.82;3.67;;;15.30;99.90;;;;;;5101986;27;20531;-82
2023/08/02 03:16:53;;;;;;;7.80;3.60;;;15.30;99.90;;;;;;5079699;27;20078;-82
2023/08/02 03:19:18;;;;;;;9.32;4.07;;;15.30;99.90;;;;;;5106743;27;20756;-82
2023/08/02 03:21:44;;;;;;;8.95;4.00;;;15.30;99.90;;;;;;5097161;27;20031;-82
2023/08/02 03:24:10;;;;;;;9.82;4.30;;;15.30;99.90;;;;;;5100213;27;20051;-82
2023/08/02 03:26:35;;;;;;;8.05;3.75;;;15.30;99.90;;;;;;5102968;27;20044;-82
2023/08/02 03:29:01;;;;;;;7.43;3.55;;;15.30;99.90;;;;;;5079770;27;20097;-82
2023/08/02 03:31:27;;;;;;;14.90;4.07;;;15.20;99.90;;;;;;5100212;27;20574;-82
2023/08/02 03:33:52;;;;;;;9.38;4.30;;;15.20;99.90;;;;;;5104253;27;20044;-82
2023/08/02 03:36:18;;;;;;;11.32;4.00;;;15.20;99.90;;;;;;5076603;28;20525;-82
2023/08/02 03:38:44;;;;;;;9.65;3.95;;;15.30;99.90;;;;;;5088168;28;20039;-82
2023/08/02 03:41:09;;;;;;;10.00;4.53;;;15.30;99.90;;;;;;5083049;28;20515;-82
2023/08/02 03:43:35;;;;;;;12.40;4.40;;;15.30;99.90;;;;;;5109387;27;20111;-82
2023/08/02 03:46:01;;;;;;;9.18;4.60;;;15.30;99.90;;;;;;5096515;27;20530;-82
2023/08/02 03:48:28;;;;;;;10.52;4.25;;;15.30;99.90;;;;;;5102261;27;20095;-82
2023/08/02 03:50:58;;;;;;;13.52;4.43;;;15.20;99.90;;;;;;5087773;27;20047;-82
2023/08/02 03:53:26;;;;;;;13.10;5.00;;;15.20;99.90;;;;;;5089900;27;20049;-82
2023/08/02 03:55:51;;;;;;;14.07;4.75;;;15.20;99.90;;;;;;5089817;27;20100;-82
2023/08/02 03:58:17;;;;;;;17.17;5.25;;;15.20;99.90;;;;;;5099959;27;20796;-82
2023/08/02 04:00:42;;;;;;;11.25;4.45;;;15.30;99.90;;;;;;5085449;27;20237;-82
2023/08/02 04:03:08;;;;;;;11.55;4.72;;;15.30;99.90;;;;;;5088030;27;20047;-82
2023/08/02 04:05:34;;;;;;;10.57;4.97;;;15.30;99.90;;;;;;5084163;27;20074;-82
2023/08/02 04:07:59;;;;;;;10.00;4.47;;;15.30;99.90;;;;;;5111663;27;20405;-82
2023/08/02 04:10:25;;;;;;;10.70;4.88;;;15.30;99.90;;;;;;5102006;27;20039;-82
2023/08/02 04:12:51;;;;;;;14.10;5.50;;;15.30;99.90;;;;;;5093351;27;20471;-82
2023/08/02 04:15:17;;;;;;;14.02;5.68;;;15.30;99.90;;;;;;5088520;27;20041;-82
2023/08/02 04:17:43;;;;;;;9.68;4.55;;;15.20;99.90;;;;;;5094897;27;20043;-82
2023/08/02 04:20:09;;;;;;;15.15;6.00;;;15.30;99.90;;;;;;5086323;27;20031;-82
2023/08/02 04:22:35;;;;;;;11.90;5.10;;;15.30;99.90;;;;;;5080473;27;20481;-82
2023/08/02 04:25:02;;;;;;;9.70;4.80;;;15.30;99.90;;;;;;5091278;27;20043;-83
2023/08/02 04:27:28;;;;;;;16.38;5.38;;;15.30;99.90;;;;;;5104355;27;20061;-82
2023/08/02 04:29:53;;;;;;;12.27;5.28;;;15.30;99.90;;;;;;5097569;27;20062;-82
2023/08/02 04:32:22;;;;;;;12.27;5.32;;;15.30;99.90;;;;;;5126650;27;20155;-82
2023/08/02 04:34:48;;;;;;;11.82;5.07;;;15.20;99.90;;;;;;5105878;27;20101;-82
2023/08/02 04:37:13;;;;;;;11.98;4.97;;;15.20;99.90;;;;;;5087336;27;20130;-82
2023/08/02 04:39:39;;;;;;;12.32;5.43;;;15.20;99.90;;;;;;5087499;27;20073;-83
2023/08/02 04:42:05;;;;;;;15.15;5.75;;;15.20;99.90;;;;;;5093841;27;20070;-82
2023/08/02 04:44:30;;;;;;;10.68;5.88;;;15.20;99.90;;;;;;5082590;28;20085;-82
2023/08/02 04:46:56;;;;;;;15.35;5.32;;;15.10;99.90;;;;;;5100314;28;20090;-82
2023/08/02 04:49:22;;;;;;;11.10;5.25;;;15.20;99.90;;;;;;5090687;28;20058;-82
2023/08/02 04:51:47;;;;;;;9.10;5.47;;;15.10;99.90;;;;;;5087344;28;20067;-82
2023/08/02 04:54:13;;;;;;;10.88;5.45;;;15.20;99.90;;;;;;5085494;28;20470;-82
2023/08/02 04:56:39;;;;;;;15.40;5.40;;;15.20;99.90;;;;;;5104649;28;20031;-82
2023/08/02 04:59:07;;;;;;;12.85;5.70;;;15.10;99.90;;;;;;5080412;28;20055;-82
2023/08/02 05:01:33;;;;;;;11.43;5.40;;;15.10;99.90;;;;;;5103285;28;20111;-81
2023/08/02 05:03:59;;;;;;;9.45;5.55;;;15.20;99.90;;;;;;5084819;28;20119;-82
2023/08/02 05:06:24;;;;;;;11.20;5.63;;;15.20;99.90;;;;;;5090629;28;20130;-82
2023/08/02 05:08:50;;;;;;;10.60;5.45;;;15.20;99.90;;;;;;5080836;28;20414;-82
2023/08/02 05:11:15;;;;;;;11.75;5.18;;;15.20;99.90;;;;;;5085421;28;20097;-82
2023/08/02 05:13:41;;;;;;;11.38;5.53;;;15.20;99.90;;;;;;5118806;27;20032;-82
2023/08/02 05:16:12;;;;;;;12.75;5.38;;;15.20;99.90;;;;;;5091948;28;20148;-82
2023/08/02 05:18:39;;;;;;;8.80;5.53;;;15.20;99.90;;;;;;5094141;28;20031;-82
2023/08/02 05:21:15;;;;;;;11.90;5.10;;;15.20;99.90;;;;;;5081849;28;20042;-82
2023/08/02 05:23:41;;;;;;;11.60;5.35;;;15.20;99.90;;;;;;5106794;27;20171;-83
2023/08/02 05:26:07;;;;;;;10.52;5.22;;;15.20;99.90;;;;;;5093869;27;20079;-82
2023/08/02 05:28:37;;;;;;;17.75;5.88;;;15.20;99.90;;;;;;5085225;27;20544;-82
2023/08/02 05:31:03;;;;;;;11.80;6.00;;;15.30;99.90;;;;;;5112902;27;20333;-82
2023/08/02 05:33:29;;;;;;;13.20;5.72;;;15.30;99.90;;;;;;5105136;27;20466;-82
2023/08/02 05:35:54;;;;;;;14.20;5.47;;;15.40;99.90;;;;;;5092421;27;20040;-82
2023/08/02 05:38:21;;;;;;;13.13;5.50;;;15.50;99.90;;;;;;5078203;27;20232;-82
2023/08/02 05:40:46;;;;;;;14.82;5.97;;;15.50;99.90;;;;;;5106132;27;20397;-82
2023/08/02 05:43:12;;;;;;;10.80;5.70;;;15.60;99.90;;;;;;5089198;27;20031;-82
2023/08/02 05:45:38;;;;;;;11.10;5.30;;;15.60;99.90;;;;;;5101072;27;20062;-82
2023/08/02 05:48:04;;;;;;;14.57;5.82;;;15.60;99.90;;;;;;5107262;27;20520;-82
2023/08/02 05:50:31;;;;;;;12.82;5.70;;;15.70;99.90;;;;;;5104880;27;20097;-82
2023/08/02 05:52:57;;;;;;;11.07;5.18;;;15.80;99.90;;;;;;5093603;27;20043;-82
2023/08/02 05:55:22;;;;;;;13.85;5.53;;;15.80;99.90;;;;;;5105216;27;20111;-83
2023/08/02 05:57:48;;;;;;;8.80;5.30;;;15.90;99.90;;;;;;5110241;27;20063;-82
2023/08/02 06:00:14;;;;;;;13.95;5.80;;;15.90;99.90;;;;;;5100184;27;20035;-82
2023/08/02 06:02:40;;;;;;;9.80;5.43;;;16.00;99.90;;;;;;5087553;27;20431;-82
2023/08/02 06:05:07;;;;;;;12.98;5.50;;;16.20;99.90;;;;;;5086497;27;20039;-82
2023/08/02 06:07:33;;;;;;;12.32;5.70;;;16.30;99.90;;;;;;5100941;27;20521;-82
2023/08/02 06:10:00;;;;;;;11.43;5.47;;;16.30;99.90;;;;;;5104998;27;20054;-82
2023/08/02 06:12:26;;;;;;;13.10;6.00;;;16.20;99.90;;;;;;5091405;27;20192;-83
2023/08/02 06:14:51;;;;;;;11.30;6.32;;;16.30;99.90;;;;;;5102847;27;20585;-83
2023/08/02 06:17:17;;;;;;;11.60;6.13;;;16.50;99.90;;;;;;5094059;27;20106;-82
2023/08/02 06:19:43;;;;;;;9.32;6.15;;;16.40;99.90;;;;;;5090203;27;20354;-82
2023/08/02 06:22:09;;;;;;;9.18;6.47;;;16.50;99.90;;;;;;5089050;27;20234;-83
2023/08/02 06:24:37;;;;;;;9.50;6.28;;;16.50;99.90;;;;;;5110638;27;20480;-82
2023/08/02 06:27:03;;;;;;;12.25;6.70;;;16.50;99.90;;;;;;5098259;27;20331;-83
2023/08/02 06:29:29;;;;;;;13.85;7.18;;;16.60;99.90;;;;;;5106990;27;20127;-82
2023/08/02 06:31:54;;;;;;;10.98;6.85;;;16.70;99.90;;;;;;5107508;27;20039;-83
2023/08/02 06:34:20;;;;;;;11.93;6.90;;;16.60;99.90;;;;;;5101118;27;20100;-82
2023/08/02 06:36:46;;;;;;;11.95;7.40;;;16.70;99.90;;;;;;5095977;27;20031;-82
2023/08/02 06:39:12;;;;;;;11.20;6.32;;;16.70;99.90;;;;;;5086995;27;20114;-83
2023/08/02 06:41:37;;;;;;;10.80;5.97;;;16.80;99.90;;;;;;5088901;27;20032;-82
2023/08/02 06:44:07;;;;;;;9.95;6.38;;;16.90;99.90;;;;;;5100123;27;20114;-83
2023/08/02 06:46:33;;;;;;;8.48;5.85;;;16.90;99.90;;;;;;5099327;27;20143;-82
2023/08/02 06:48:59;;;;;;;11.32;5.75;;;17.10;99.90;;;;;;5103603;27;20036;-82
2023/08/02 06:51:25;;;;;;;10.82;5.53;;;17.00;99.90;;;;;;5102909;27;20039;-82
2023/08/02 06:53:51;;;;;;;11.38;6.40;;;16.90;99.90;;;;;;5082118;27;20053;-83
2023/08/02 06:56:18;;;;;;;9.57;5.32;;;17.00;99.90;;;;;;5105189;27;20031;-83
2023/08/02 06:58:44;;;;;;;9.38;5.35;;;17.00;99.90;;;;;;5100969;27;20046;-82
2023/08/02 07:01:18;;;;;;;8.70;4.85;;;17.10;99.90;;;;;;5077498;27;20156;-82
2023/08/02 07:03:48;;;;;;;10.75;4.82;;;17.20;99.90;;;;;;5093833;27;20038;-83
2023/08/02 07:06:16;;;;;;;11.90;5.03;;;17.20;99.90;;;;;;5078207;27;20051;-82
2023/08/02 07:08:46;;;;;;;10.75;4.63;;;17.40;99.90;;;;;;5080154;28;20047;-82
2023/08/02 07:11:12;;;;;;;10.88;4.97;;;17.30;99.90;;;;;;5096631;27;20109;-83
2023/08/02 07:13:45;;;;;;;9.48;4.70;;;17.30;99.90;;;;;;5105836;27;20529;-82
2023/08/02 07:16:11;;;;;;;8.15;4.40;;;17.30;99.90;;;;;;5081270;28;20579;-82
2023/08/02 07:18:38;;;;;;;11.65;4.32;;;17.20;99.90;;;;;;5078172;28;20032;-82
2023/08/02 07:21:08;;;;;;;7.03;4.13;;;17.00;99.90;;;;;;5096071;27;20752;-83
2023/08/02 07:23:35;;;;;;;11.55;4.00;;;16.80;99.90;;;;;;5083228;28;20039;-82
2023/08/02 07:26:01;;;;;;;7.68;4.15;;;16.80;99.90;;;;;;5077051;27;20402;-83
2023/08/02 07:28:27;;;;;;;8.27;4.00;;;16.70;99.90;;;;;;5101881;27;20047;-82
2023/08/02 07:30:52;;;;;;;5.13;3.50;;;16.70;99.90;;;;;;5092200;27;20036;-83
2023/08/02 07:33:18;;;;;;;7.10;4.03;;;16.70;99.90;;;;;;5113972;27;20123;-82
2023/08/02 07:35:46;;;;;;;7.95;4.07;;;16.60;99.90;;;;;;5097872;27;20131;-83
2023/08/02 07:38:14;;;;;;;8.60;3.88;;;16.60;99.90;;;;;;5080151;27;20088;-82
2023/08/02 07:40:42;;;;;;;7.45;3.65;;;16.70;99.90;;;;;;5084446;27;20096;-83
2023/08/02 07:43:09;;;;;;;9.55;3.83;;;16.70;99.90;;;;;;5090910;27;20079;-82
2023/08/02 07:45:34;;;;;;;8.13;3.70;;;16.60;99.90;;;;;;5082633;27;20059;-82
2023/08/02 07:48:00;;;;;;;7.72;3.72;;;16.70;99.90;;;;;;5097462;27;20043;-82
2023/08/02 07:50:25;;;;;;;6.70;3.80;;;16.70;99.90;;;;;;5103661;27;20049;-82
2023/08/02 07:52:51;;;;;;;6.97;3.17;;;16.80;99.90;;;;;;5082094;27;20422;-82
2023/08/02 07:55:17;;;;;;;9.52;3.50;;;16.70;99.90;;;;;;5084644;27;20063;-82
2023/08/02 07:57:42;;;;;;;7.10;3.45;;;16.80;99.90;;;;;;5094857;27;20098;-82
2023/08/02 08:00:08;;;;;;;6.82;3.10;;;16.70;99.90;;;;;;5085702;27;20036;-82
2023/08/02 08:02:34;;;;;;;6.68;3.03;;;16.70;99.90;;;;;;5081511;27;20051;-82
2023/08/02 08:05:00;;;;;;;7.40;3.47;;;16.70;99.90;;;;;;5110940;27;20028;-82
2023/08/02 08:07:25;;;;;;;6.60;3.47;;;16.70;99.90;;;;;;5084230;27;20043;-82
2023/08/02 08:09:51;;;;;;;7.53;3.80;;;16.70;99.90;;;;;;5082570;28;20139;-82
2023/08/02 08:12:16;;;;;;;6.72;3.45;;;16.50;99.90;;;;;;5087899;27;20118;-82
2023/08/02 08:14:42;;;;;;;5.43;3.47;;;16.60;99.90;;;;;;5100199;27;20402;-83
2023/08/02 08:17:08;;;;;;;10.40;3.92;;;16.50;99.90;;;;;;5088860;27;20050;-82
2023/08/02 08:19:34;;;;;;;7.40;4.10;;;16.50;99.90;;;;;;5102203;27;20470;-82
2023/08/02 08:22:00;;;;;;;7.53;3.75;;;16.50;99.90;;;;;;5101440;28;20081;-82
2023/08/02 08:24:26;;;;;;;6.20;3.60;;;16.30;99.90;;;;;;5085170;28;20192;-82
2023/08/02 08:26:55;;;;;;;6.45;3.90;;;16.30;99.90;;;;;;5104123;27;20343;-82
2023/08/02 08:29:20;;;;;;;10.82;4.05;;;16.20;99.90;;;;;;5108882;28;20423;-81
2023/08/02 08:31:46;;;;;;;8.95;3.35;;;16.20;99.90;;;;;;5103767;28;20046;-81
2023/08/02 08:34:13;;;;;;;9.85;3.42;;;16.10;99.90;;;;;;5099430;28;20039;-82
2023/08/02 08:36:39;;;;;;;6.72;3.30;;;16.00;99.90;;;;;;5096059;28;20051;-82
2023/08/02 08:39:05;;;;;;;7.35;3.47;;;16.00;99.90;;;;;;5100739;28;20035;-81
2023/08/02 08:41:30;;;;;;;7.68;4.13;;;16.00;99.90;;;;;;5110717;28;20465;-81
2023/08/02 08:43:57;;;;;;;9.13;3.83;;;15.90;99.90;;;;;;5083232;28;20082;-81
2023/08/02 08:46:24;;;;;;;6.15;3.15;;;15.80;99.90;;;;;;5105628;28;20096;-81
2023/08/02 08:48:49;;;;;;;7.68;3.25;;;15.80;99.90;;;;;;5102489;28;20513;-81
2023/08/02 08:51:20;;;;;;;7.30;3.20;;;15.80;99.90;;;;;;5083884;28;20123;-81
2023/08/02 08:53:48;;;;;;;7.90;3.17;;;15.80;99.90;;;;;;5086138;28;20078;-81
2023/08/02 08:56:15;;;;;;;9.05;2.92;;;15.80;99.90;;;;;;5107635;27;20108;-81
2023/08/02 08:58:41;;;;;;;5.82;2.90;;;15.80;99.90;;;;;;5113189;27;20031;-81
2023/08/02 09:01:11;;;;;;;7.35;3.20;;;15.70;99.90;;;;;;5108274;27;20043;-81
2023/08/02 09:03:37;;;;;;;6.60;3.22;;;15.80;99.90;;;;;;5107876;27;20039;-81
2023/08/02 09:06:04;;;;;;;8.15;3.05;;;15.80;99.90;;;;;;5090233;27;20035;-81
2023/08/02 09:08:41;;;;;;;5.55;3.22;;;15.80;99.90;;;;;;5087362;27;20477;-81
2023/08/02 09:11:07;;;;;;;9.55;3.95;;;15.80;99.90;;;;;;5095723;27;20092;-81
2023/08/02 09:13:33;;;;;;;7.13;3.38;;;15.80;99.90;;;;;;5101243;27;20055;-81
2023/08/02 09:16:13;;;;;;;6.45;3.10;;;15.90;99.90;;;;;;5107132;27;20040;-81
2023/08/02 09:18:41;;;;;;;7.75;3.30;;;16.10;99.90;;;;;;5102254;27;20035;-81
2023/08/02 09:21:10;;;;;;;10.75;4.05;;;16.30;99.90;;;;;;5099702;27;20047;-81
2023/08/02 09:23:36;;;;;;;7.68;3.90;;;16.20;99.90;;;;;;5105390;27;20047;-81
2023/08/02 09:26:20;;;;;;;6.63;4.15;;;16.50;99.90;;;;;;5111150;27;20047;-81
2023/08/02 09:29:05;;;;;;;5.97;3.47;;;16.40;99.90;;;;;;5079067;27;20048;-81
2023/08/02 09:31:35;;;;;;;9.38;3.47;;;16.50;99.90;;;;;;5103007;27;20039;-82
2023/08/02 09:34:01;;;;;;;8.20;3.60;;;16.50;99.90;;;;;;5107183;27;20043;-81
2023/08/02 09:36:32;;;;;;;8.32;3.90;;;16.50;99.90;;;;;;5085061;27;20042;-81
2023/08/02 09:39:14;;;;;;;7.53;3.45;;;16.60;99.90;;;;;;5085652;27;20451;-81
2023/08/02 09:41:40;;;;;;;6.50;3.50;;;16.60;99.90;;;;;;5104718;27;20070;-81
2023/08/02 09:44:07;;;;;;;5.78;3.65;;;16.80;99.90;;;;;;5106645;27;20051;-82
2023/08/02 09:46:34;;;;;;;6.40;3.58;;;16.70;99.90;;;;;;5106124;27;20462;-82
2023/08/02 09:49:02;;;;;;;8.80;3.50;;;16.80;99.90;;;;;;5107234;27;20140;-82
2023/08/02 09:51:39;;;;;;;6.57;3.92;;;16.80;99.90;;;;;;5094637;27;20562;-81
2023/08/02 09:54:04;;;;;;;7.40;3.88;;;16.80;99.90;;;;;;5081974;27;20274;-81
2023/08/02 09:56:32;;;;;;;5.85;3.45;;;16.90;99.90;;;;;;5092928;27;20036;-81
2023/08/02 09:58:58;;;;;;;8.73;4.25;;;17.10;99.90;;;;;;5093375;27;20044;-81
2023/08/02 10:01:28;;;;;;;6.88;3.55;;;16.90;99.90;;;;;;5116270;27;20115;-81
2023/08/02 10:03:58;;;;;;;6.32;3.92;;;16.80;99.90;;;;;;5090201;27;20113;-81
2023/08/02 10:06:34;;;;;;;6.28;3.75;;;16.70;99.90;;;;;;5103987;27;20084;-81
2023/08/02 10:09:07;;;;;;;6.47;3.30;;;16.70;99.90;;;;;;5101473;27;20047;-81
2023/08/02 10:11:47;;;;;;;5.93;3.50;;;16.80;99.90;;;;;;5107488;27;20067;-81
2023/08/02 10:14:13;;;;;;;6.30;3.70;;;16.70;99.90;;;;;;5102205;27;20044;-81
2023/08/02 10:16:42;;;;;;;5.28;3.67;;;16.90;99.90;;;;;;5108415;27;20031;-81
2023/08/02 10:19:10;;;;;;;5.03;3.85;;;16.90;99.90;;;;;;5102888;27;20055;-81
2023/08/02 10:21:37;;;;;;;6.47;4.13;;;16.90;99.90;;;;;;5095280;27;20039;-81
2023/08/02 10:24:03;;;;;;;7.05;3.53;;;16.90;99.90;;;;;;5088848;27;20047;-81
2023/08/02 10:26:30;;;;;;;4.78;3.75;;;17.00;99.90;;;;;;5082377;27;20051;-81
2023/08/02 10:28:58;;;;;;;8.00;4.13;;;17.10;99.90;;;;;;5109545;27;20408;-81
2023/08/02 10:31:25;;;;;;;4.28;3.17;;;17.00;99.90;;;;;;5098244;27;20126;-82
2023/08/02 10:33:50;;;;;;;4.65;3.42;;;17.20;99.90;;;;;;5096419;27;20036;-81
2023/08/02 10:36:16;;;;;;;5.40;3.08;;;17.30;99.90;;;;;;5097854;27;20047;-81
2023/08/02 10:38:42;;;;;;;4.18;2.75;;;17.30;99.90;;;;;;5097946;27;20043;-81
2023/08/02 10:41:09;;;;;;;3.95;2.90;;;17.30;99.90;;;;;;5102818;27;20539;-81
2023/08/02 10:43:53;;;;;;;3.25;2.40;;;17.20;99.90;;;;;;5095569;27;20072;-81
2023/08/02 10:46:22;;;;;;;4.75;2.53;;;17.30;99.90;;;;;;5105952;27;20390;-81
2023/08/02 10:48:49;;;;;;;3.53;2.28;;;17.40;99.90;;;;;;5112841;27;20038;-81
2023/08/02 10:51:27;;;;;;;3.53;2.00;;;17.40;99.90;;;;;;5095910;27;20362;-81
2023/08/02 10:54:22;;;;;;;3.80;2.10;;;17.30;99.90;;;;;;5116548;27;20051;-81
2023/08/02 10:56:54;;;;;;;3.55;2.10;;;17.20;99.90;;;;;;5086991;27;20032;-81
2023/08/02 10:59:23;;;;;;;2.28;1.60;;;17.30;99.90;;;;;;5107121;27;20038;-81
2023/08/02 11:02:07;;;;;;;2.03;1.65;;;17.30;99.90;;;;;;5095996;27;20042;-82
2023/08/02 11:04:34;;;;;;;2.65;1.80;;;17.30;99.90;;;;;;5087356;27;20039;-81
2023/08/02 11:07:12;;;;;;;2.45;1.50;;;17.20;99.90;;;;;;5086652;27;20059;-81
2023/08/02 11:09:37;;;;;;;2.00;1.60;;;17.30;99.90;;;;;;5107291;27;20042;-82
2023/08/02 11:12:14;;;;;;;1.92;1.58;;;17.30;99.90;;;;;;5103496;27;20031;-82
2023/08/02 11:14:41;;;;;;;3.15;1.77;;;17.40;99.90;;;;;;5098205;27;20410;-82
2023/08/02 11:17:08;;;;;;;1.55;1.40;;;17.60;99.90;;;;;;5084682;27;20158;-81
2023/08/02 11:19:35;;;;;;;1.70;1.45;;;17.50;99.90;;;;;;5084792;27;20035;-81
2023/08/02 11:22:02;;;;;;;2.67;1.50;;;17.40;99.90;;;;;;5101339;27;21938;-81
2023/08/02 11:24:40;;;;;;;2.47;1.50;;;17.70;99.90;;;;;;5086925;27;20583;-81
2023/08/02 11:27:05;;;;;;;1.83;1.27;;;17.80;99.90;;;;;;5080478;27;20516;-82
2023/08/02 11:29:31;;;;;;;1.70;1.40;;;17.80;99.90;;;;;;5091780;27;20965;-82
2023/08/02 11:32:02;;;;;;;1.50;1.20;;;17.90;99.90;;;;;;5109605;27;20122;-81
2023/08/02 11:34:29;;;;;;;2.20;1.45;;;17.90;99.90;;;;;;5093832;27;20118;-81
2023/08/02 11:36:55;;;;;;;1.92;1.40;;;18.10;99.90;;;;;;5096177;27;20393;-81
2023/08/02 11:39:21;;;;;;;2.20;1.58;;;17.90;99.90;;;;;;5082496;27;20046;-82
2023/08/02 11:42:01;;;;;;;2.42;1.70;;;17.80;99.90;;;;;;5122809;27;20545;-82
2023/08/02 11:44:29;;;;;;;1.35;1.08;;;18.20;99.90;;;;;;5085822;27;20447;-82
2023/08/02 11:46:56;;;;;;;1.10;1.00;;;18.40;99.90;;;;;;5086503;27;20071;-81
2023/08/02 11:49:22;;;;;;;1.40;1.30;;;18.40;99.90;;;;;;5100684;27;20088;-81
2023/08/02 11:51:48;;;;;;;1.63;1.17;;;18.70;99.90;;;;;;5077670;27;20122;-82
2023/08/02 11:54:15;;;;;;;1.85;1.00;;;19.10;99.90;;;;;;5103925;27;20096;-81
2023/08/02 11:56:41;;;;;;;1.77;1.13;;;19.10;99.90;;;;;;5105180;27;20113;-81
2023/08/02 11:59:11;;;;;;;1.55;1.13;;;19.30;99.90;;;;;;5119959;27;20026;-82
2023/08/02 12:01:41;;;;;;;1.65;1.23;;;20.10;99.90;;;;;;5118119;27;20035;-80
2023/08/02 12:04:08;;;;;;;1.55;1.08;;;20.30;99.90;;;;;;5085109;27;20039;-81
2023/08/02 12:06:52;;;;;;;1.70;1.23;;;20.50;99.90;;;;;;5095870;27;20588;-81
2023/08/02 12:09:18;;;;;;;1.10;1.00;;;20.70;99.90;;;;;;5102664;27;20046;-81
2023/08/02 12:11:45;;;;;;;1.10;0.90;;;21.10;99.90;;;;;;5111722;27;20146;-81
2023/08/02 12:14:11;;;;;;;2.90;1.10;;;20.80;99.90;;;;;;5088763;27;20382;-81
2023/08/02 12:16:42;;;;;;;1.25;0.90;;;20.70;99.90;;;;;;5090894;27;20024;-81
2023/08/02 12:19:08;;;;;;;0.98;0.90;;;20.60;99.90;;;;;;5101108;27;20041;-81
2023/08/02 12:21:34;;;;;;;1.55;1.10;;;20.80;99.90;;;;;;5083903;27;20074;-81
2023/08/02 12:24:14;;;;;;;1.98;1.00;;;20.70;99.90;;;;;;5102324;27;20063;-81
2023/08/02 12:26:40;;;;;;;0.80;0.80;;;20.60;99.90;;;;;;5106052;27;20427;-81
2023/08/02 12:29:06;;;;;;;1.05;0.95;;;20.50;99.90;;;;;;5100209;27;20118;-81
2023/08/02 12:31:45;;;;;;;1.45;1.00;;;20.80;99.90;;;;;;5092274;27;20042;-81
2023/08/02 12:34:11;;;;;;;1.33;1.23;;;21.00;99.90;;;;;;5087929;27;20057;-81
2023/08/02 12:36:38;;;;;;;1.65;1.50;;;21.00;99.90;;;;;;5094359;27;20494;-81
2023/08/02 12:39:04;;;;;;;1.30;1.15;;;20.90;99.90;;;;;;5084988;27;20375;-81
2023/08/02 12:41:30;;;;;;;2.45;1.75;;;21.20;99.90;;;;;;5087660;27;20043;-81
2023/08/02 12:43:56;;;;;;;2.08;1.50;;;21.40;99.90;;;;;;5047804;27;1402747;-81
2023/08/02 12:46:22;;;;;;;1.48;1.33;;;22.00;99.90;;;;;;5097614;27;20490;-81